Thomson, Thomson Mcduffie County Airport (KHQU)

NameThomson Mcduffie County Airport
CityThomson
CountryUnited States
ICAOKHQU
IATA
Altitude153 m
CoordinatesGoogle Map
Live Air TrafficLiveATC.net
METARKHQU 180555Z AUTO 00000KT 10SM CLR 23/21 A3006 RMK AO2 T02310214 10295 20229
2019-07-18 05:55:00 Wind: North (0°) 0 m/s - Visibility: 16093.4 m - Temperature: 23 °C - Dew point: 21 °C - Humidity: 88.6% - Pressure: 1017.95 hPa

Sorry, no flights used the airport in this database.